Time;durP1;ratioP1;P1;durP2;ratioP2;P2;SDS_P1;SDS_P2;PMS_P1;PMS_P2;Temp;Humidity;BMP_temperature;BMP_pressure;BME280_temperature;BME280_humidity;BME280_pressure;Samples;Min_cycle;Max_cycle;Signal;HPM_P1;HPM_P2
2024/03/18 00:02:18;;;;;;;3.38;2.22;;;10.50;83.50;;;;;;5032392;28;20682;-82
2024/03/18 00:04:45;;;;;;;5.70;2.25;;;10.60;83.30;;;;;;5024818;28;20706;-82
2024/03/18 00:07:13;;;;;;;4.47;2.30;;;10.70;82.40;;;;;;5033696;28;20199;-84
2024/03/18 00:09:40;;;;;;;4.35;2.33;;;10.60;82.30;;;;;;5029995;28;20691;-83
2024/03/18 00:12:08;;;;;;;4.78;2.38;;;10.50;82.80;;;;;;5040537;28;20225;-82
2024/03/18 00:14:35;;;;;;;3.17;2.25;;;10.40;83.20;;;;;;5029977;28;20207;-82
2024/03/18 00:17:03;;;;;;;6.85;1.95;;;10.30;84.30;;;;;;5034520;28;20199;-82
2024/03/18 00:19:30;;;;;;;5.28;2.47;;;10.20;84.50;;;;;;5039401;28;20203;-82
2024/03/18 00:21:56;;;;;;;5.63;2.28;;;10.20;84.80;;;;;;5040373;28;20210;-82
2024/03/18 00:24:25;;;;;;;6.53;2.50;;;10.20;85.10;;;;;;5030210;28;20223;-82
2024/03/18 00:26:52;;;;;;;4.18;1.95;;;10.20;85.00;;;;;;5028266;28;20206;-82
2024/03/18 00:29:19;;;;;;;6.28;2.38;;;10.20;86.10;;;;;;5034077;28;20586;-82
2024/03/18 00:31:46;;;;;;;4.85;2.42;;;10.10;86.10;;;;;;5029685;28;20253;-83
2024/03/18 00:34:14;;;;;;;3.63;2.05;;;10.10;86.30;;;;;;5027358;28;20199;-83
2024/03/18 00:36:42;;;;;;;4.18;2.10;;;10.20;86.70;;;;;;5031599;28;20669;-83
2024/03/18 00:39:08;;;;;;;4.68;2.13;;;10.20;86.90;;;;;;5036382;28;20198;-83
2024/03/18 00:41:46;;;;;;;3.75;2.40;;;10.30;85.70;;;;;;5030789;28;20198;-82
2024/03/18 00:44:14;;;;;;;2.67;2.00;;;10.30;85.30;;;;;;5032607;28;20222;-83
2024/03/18 00:46:42;;;;;;;5.43;2.25;;;10.30;84.50;;;;;;5033016;28;20213;-83
2024/03/18 00:49:09;;;;;;;4.03;2.00;;;10.30;85.00;;;;;;5031905;28;20203;-82
2024/03/18 00:51:36;;;;;;;4.13;1.80;;;10.40;84.90;;;;;;5031521;28;20202;-82
2024/03/18 00:54:04;;;;;;;3.60;2.03;;;10.40;84.70;;;;;;5033485;28;20198;-83
2024/03/18 00:56:31;;;;;;;4.68;2.22;;;10.30;84.80;;;;;;5031398;28;20218;-82
2024/03/18 00:58:59;;;;;;;4.00;2.30;;;10.40;85.10;;;;;;5038023;28;20229;-83
2024/03/18 01:01:27;;;;;;;2.80;1.90;;;10.30;84.30;;;;;;5028734;28;20209;-84
2024/03/18 01:03:54;;;;;;;6.28;2.30;;;10.40;85.00;;;;;;5035625;28;20306;-82
2024/03/18 01:06:21;;;;;;;5.30;2.30;;;10.30;85.10;;;;;;5035207;28;20195;-83
2024/03/18 01:08:48;;;;;;;4.45;2.20;;;10.30;85.10;;;;;;5036919;28;20204;-86
2024/03/18 01:11:14;;;;;;;6.10;2.10;;;10.30;85.30;;;;;;5028933;28;20725;-82
2024/03/18 01:13:46;;;;;;;3.83;2.15;;;10.30;85.00;;;;;;5034657;28;20664;-82
2024/03/18 01:16:15;;;;;;;4.72;2.30;;;10.30;84.70;;;;;;5029787;28;20196;-82
2024/03/18 01:18:43;;;;;;;3.53;2.15;;;10.30;84.50;;;;;;5034595;28;20198;-83
2024/03/18 01:21:10;;;;;;;6.00;2.30;;;10.40;85.30;;;;;;5029978;28;20707;-83
2024/03/18 01:23:37;;;;;;;4.68;2.28;;;10.40;84.30;;;;;;5038111;28;20214;-84
2024/03/18 01:26:04;;;;;;;3.15;2.15;;;10.50;83.70;;;;;;5031666;28;20217;-82
2024/03/18 01:28:30;;;;;;;3.20;1.85;;;10.50;83.70;;;;;;5027652;28;20202;-83
2024/03/18 01:31:00;;;;;;;4.22;2.05;;;10.40;83.30;;;;;;5038488;28;20203;-82
2024/03/18 01:33:29;;;;;;;3.75;1.95;;;10.40;83.50;;;;;;5032494;28;20198;-82
2024/03/18 01:35:55;;;;;;;3.78;2.22;;;10.40;83.60;;;;;;5030952;28;20205;-83
2024/03/18 01:38:22;;;;;;;2.30;2.03;;;10.40;84.20;;;;;;5028707;28;20206;-83
2024/03/18 01:40:49;;;;;;;5.15;2.40;;;10.40;84.10;;;;;;5032087;28;20655;-83
2024/03/18 01:43:16;;;;;;;2.95;1.90;;;10.40;84.50;;;;;;5033194;28;20297;-85
2024/03/18 01:45:43;;;;;;;4.82;2.45;;;10.30;84.60;;;;;;5032450;28;20626;-82
2024/03/18 01:48:11;;;;;;;3.13;1.98;;;10.30;85.00;;;;;;5027435;28;20666;-82
2024/03/18 01:50:41;;;;;;;5.03;2.45;;;10.30;85.50;;;;;;5033623;28;20555;-83
2024/03/18 01:53:09;;;;;;;3.20;2.05;;;10.40;85.10;;;;;;5031540;28;20237;-83
2024/03/18 01:55:36;;;;;;;3.33;2.13;;;10.30;85.50;;;;;;5036466;28;20783;-83
2024/03/18 01:58:03;;;;;;;2.83;2.08;;;10.30;87.20;;;;;;5031194;28;20896;-83
2024/03/18 02:00:35;;;;;;;3.58;1.88;;;10.30;88.30;;;;;;5031608;28;20206;-82
2024/03/18 02:03:02;;;;;;;5.63;2.25;;;10.30;90.00;;;;;;5031515;28;20254;-83
2024/03/18 02:05:30;;;;;;;4.00;2.42;;;10.20;90.20;;;;;;5029860;28;20754;-83
2024/03/18 02:07:59;;;;;;;5.25;2.60;;;10.30;90.40;;;;;;5031766;28;20214;-82
2024/03/18 02:10:26;;;;;;;4.38;2.10;;;10.40;90.40;;;;;;5030388;28;20202;-82
2024/03/18 02:12:53;;;;;;;17.73;10.65;;;10.50;89.70;;;;;;5029026;28;21494;-82
2024/03/18 02:15:21;;;;;;;10.73;6.65;;;10.50;89.00;;;;;;5030483;28;20210;-82
2024/03/18 02:17:50;;;;;;;31.67;23.83;;;10.40;88.80;;;;;;5026715;28;20276;-82
2024/03/18 02:20:17;;;;;;;37.05;27.10;;;10.50;90.40;;;;;;5039098;28;20211;-82
2024/03/18 02:22:45;;;;;;;24.30;19.13;;;10.80;89.80;;;;;;5035393;28;20199;-82
2024/03/18 02:25:12;;;;;;;22.58;16.70;;;10.80;88.70;;;;;;5034724;28;20242;-82
2024/03/18 02:27:39;;;;;;;11.07;8.93;;;10.90;88.80;;;;;;5033817;28;20226;-82
2024/03/18 02:30:08;;;;;;;3.10;2.28;;;10.70;88.20;;;;;;5030587;28;20217;-82
2024/03/18 02:32:36;;;;;;;14.32;11.07;;;10.70;87.60;;;;;;5031949;28;20199;-83
2024/03/18 02:35:05;;;;;;;12.80;8.88;;;10.70;89.10;;;;;;5034448;28;20237;-83
2024/03/18 02:37:32;;;;;;;8.25;5.03;;;10.80;88.30;;;;;;5029943;28;20199;-87
2024/03/18 02:40:00;;;;;;;11.50;6.88;;;10.80;87.50;;;;;;5033326;28;20257;-83
2024/03/18 02:42:27;;;;;;;8.65;6.22;;;10.80;88.80;;;;;;5035069;28;20203;-82
2024/03/18 02:44:54;;;;;;;7.10;4.90;;;10.80;89.00;;;;;;5039477;28;20229;-82
2024/03/18 02:47:21;;;;;;;6.28;4.90;;;10.90;88.80;;;;;;5033983;28;20210;-82
2024/03/18 02:49:48;;;;;;;9.32;4.70;;;10.90;88.30;;;;;;5037378;28;20237;-83
2024/03/18 02:52:14;;;;;;;6.07;2.60;;;10.90;88.60;;;;;;5033138;28;20210;-83
2024/03/18 02:54:40;;;;;;;4.30;1.92;;;10.90;88.00;;;;;;5033311;28;20213;-82
2024/03/18 02:57:08;;;;;;;2.03;1.83;;;10.60;89.40;;;;;;5029030;28;20277;-82
2024/03/18 02:59:35;;;;;;;3.08;2.00;;;10.40;90.40;;;;;;5035752;28;20199;-82
2024/03/18 03:02:02;;;;;;;2.38;1.70;;;10.30;90.40;;;;;;5035171;28;20574;-84
2024/03/18 03:04:29;;;;;;;2.25;1.70;;;10.20;91.20;;;;;;5034479;28;20198;-82
2024/03/18 03:06:56;;;;;;;4.75;2.08;;;10.10;92.10;;;;;;5032958;28;20199;-82
2024/03/18 03:09:23;;;;;;;2.80;1.88;;;10.00;92.80;;;;;;5037765;28;20198;-82
2024/03/18 03:11:50;;;;;;;3.90;1.90;;;9.90;93.40;;;;;;5041293;28;20202;-83
2024/03/18 03:14:18;;;;;;;4.80;1.92;;;10.00;93.60;;;;;;5037923;28;20209;-82
2024/03/18 03:16:45;;;;;;;4.38;1.80;;;10.00;93.50;;;;;;5034122;28;20205;-83
2024/03/18 03:19:13;;;;;;;3.72;1.70;;;9.90;94.20;;;;;;5033892;28;20226;-84
2024/03/18 03:21:40;;;;;;;4.28;1.70;;;10.00;94.00;;;;;;5032159;28;20211;-82
2024/03/18 03:24:07;;;;;;;3.35;1.60;;;9.90;94.30;;;;;;5030861;28;20605;-82
2024/03/18 03:26:34;;;;;;;4.00;1.60;;;9.90;94.40;;;;;;5034797;28;20218;-82
2024/03/18 03:29:01;;;;;;;2.92;1.63;;;9.90;94.60;;;;;;5033261;28;20207;-82
2024/03/18 03:31:29;;;;;;;6.47;1.85;;;10.00;94.10;;;;;;5030004;28;20198;-82
2024/03/18 03:33:56;;;;;;;3.47;2.03;;;10.00;94.00;;;;;;5039157;28;20571;-83
2024/03/18 03:36:23;;;;;;;2.63;1.75;;;10.10;93.60;;;;;;5036235;28;20209;-82
2024/03/18 03:38:50;;;;;;;2.05;1.55;;;9.90;94.40;;;;;;5038854;28;20202;-82
2024/03/18 03:41:17;;;;;;;1.77;1.65;;;9.90;94.70;;;;;;5031009;28;21348;-83
2024/03/18 03:43:44;;;;;;;4.18;1.67;;;9.90;95.00;;;;;;5032261;28;20219;-82
2024/03/18 03:46:11;;;;;;;4.30;1.77;;;9.80;95.20;;;;;;5032762;28;20234;-82
2024/03/18 03:48:39;;;;;;;3.40;1.60;;;9.80;95.60;;;;;;5031677;28;20191;-82
2024/03/18 03:51:06;;;;;;;2.45;1.40;;;9.80;95.80;;;;;;5031958;28;20673;-85
2024/03/18 03:53:33;;;;;;;2.72;1.55;;;9.70;96.10;;;;;;5024305;28;20655;-82
2024/03/18 03:56:00;;;;;;;5.63;1.80;;;9.70;96.10;;;;;;5030337;28;20202;-83
2024/03/18 03:58:28;;;;;;;2.15;1.45;;;9.70;96.10;;;;;;5032627;28;20265;-82
2024/03/18 04:00:55;;;;;;;2.75;1.38;;;9.80;96.10;;;;;;5034002;28;20285;-82
2024/03/18 04:03:24;;;;;;;2.78;1.15;;;9.90;96.10;;;;;;5030698;28;20284;-86
2024/03/18 04:05:54;;;;;;;3.28;1.50;;;10.00;95.70;;;;;;5040062;28;20222;-82
2024/03/18 04:08:21;;;;;;;2.17;1.40;;;10.00;95.40;;;;;;5036767;28;20651;-82
2024/03/18 04:10:48;;;;;;;3.22;1.20;;;10.10;95.10;;;;;;5030163;28;20190;-82
2024/03/18 04:13:15;;;;;;;2.83;1.58;;;10.00;94.90;;;;;;5038657;28;20212;-83
2024/03/18 04:15:42;;;;;;;2.67;1.33;;;9.90;95.60;;;;;;5031455;28;20198;-82
2024/03/18 04:18:10;;;;;;;1.67;1.58;;;9.90;96.10;;;;;;5033865;28;20200;-82
2024/03/18 04:20:37;;;;;;;4.43;1.58;;;9.90;96.10;;;;;;5032306;28;20195;-82
2024/03/18 04:23:05;;;;;;;4.88;1.60;;;9.80;96.10;;;;;;5023709;28;20196;-82
2024/03/18 04:25:34;;;;;;;4.60;1.58;;;9.70;96.20;;;;;;5033593;28;20309;-82
2024/03/18 04:28:06;;;;;;;3.55;1.45;;;9.70;96.70;;;;;;5033274;28;20281;-82
2024/03/18 04:30:34;;;;;;;2.53;1.63;;;9.70;97.10;;;;;;5033722;28;20483;-82
2024/03/18 04:33:01;;;;;;;3.42;1.40;;;9.70;97.40;;;;;;5027102;28;20202;-82
2024/03/18 04:35:27;;;;;;;4.95;1.70;;;9.80;97.40;;;;;;5037241;28;21394;-82
2024/03/18 04:37:55;;;;;;;3.65;1.30;;;9.80;97.20;;;;;;5025556;28;20206;-82
2024/03/18 04:40:24;;;;;;;3.03;1.17;;;9.80;97.00;;;;;;5033297;28;20202;-82
2024/03/18 04:42:52;;;;;;;1.35;1.25;;;9.80;97.00;;;;;;5037558;28;20194;-82
2024/03/18 04:45:20;;;;;;;1.90;1.30;;;9.80;97.20;;;;;;5028584;28;20222;-82
2024/03/18 04:47:49;;;;;;;3.55;1.42;;;9.80;97.30;;;;;;5031718;28;20574;-82
2024/03/18 04:50:18;;;;;;;3.97;1.65;;;9.70;97.40;;;;;;5030651;28;20199;-83
2024/03/18 04:52:45;;;;;;;3.72;1.33;;;9.80;97.60;;;;;;5033976;28;20789;-82
2024/03/18 04:55:12;;;;;;;1.52;1.30;;;9.70;97.60;;;;;;5030230;28;20211;-82
2024/03/18 04:57:40;;;;;;;3.35;1.35;;;9.80;97.80;;;;;;5037834;28;20253;-82
2024/03/18 05:00:11;;;;;;;3.83;1.67;;;9.80;97.50;;;;;;5031838;28;20203;-82
2024/03/18 05:02:38;;;;;;;2.67;1.27;;;9.70;97.70;;;;;;5028333;28;20199;-82
2024/03/18 05:05:06;;;;;;;3.03;1.40;;;9.70;98.00;;;;;;5032049;28;20336;-83
2024/03/18 05:07:33;;;;;;;1.55;1.27;;;9.70;98.30;;;;;;5032527;28;20230;-82
2024/03/18 05:10:00;;;;;;;4.18;1.48;;;9.80;98.00;;;;;;5035107;28;20205;-82
2024/03/18 05:12:27;;;;;;;2.40;1.35;;;9.80;98.00;;;;;;5030730;28;20249;-82
2024/03/18 05:14:57;;;;;;;3.95;1.35;;;9.80;97.90;;;;;;5026886;28;20203;-82
2024/03/18 05:17:24;;;;;;;2.00;1.25;;;9.80;98.10;;;;;;5032603;28;20197;-81
2024/03/18 05:19:51;;;;;;;4.50;1.60;;;9.80;98.20;;;;;;5033622;28;20194;-82
2024/03/18 05:22:18;;;;;;;1.70;1.30;;;9.80;98.30;;;;;;5028569;28;20289;-82
2024/03/18 05:24:45;;;;;;;1.98;1.77;;;9.80;98.10;;;;;;5030128;28;20676;-84
2024/03/18 05:27:13;;;;;;;3.28;2.08;;;9.80;98.10;;;;;;5030048;28;20223;-83
2024/03/18 05:29:40;;;;;;;3.72;2.15;;;9.80;98.20;;;;;;5029226;28;20199;-82
2024/03/18 05:32:10;;;;;;;3.33;1.63;;;9.80;98.40;;;;;;5028889;28;20190;-82
2024/03/18 05:34:37;;;;;;;3.72;1.70;;;9.90;98.30;;;;;;5029545;28;20258;-81
2024/03/18 05:37:06;;;;;;;1.58;1.30;;;9.90;98.20;;;;;;5036871;28;20199;-82
2024/03/18 05:39:33;;;;;;;2.03;1.38;;;9.90;98.20;;;;;;5031360;28;20221;-82
2024/03/18 05:42:00;;;;;;;1.63;1.30;;;9.90;98.10;;;;;;5033907;28;20202;-82
2024/03/18 05:44:28;;;;;;;2.83;1.42;;;9.90;98.10;;;;;;5029017;28;20579;-81
2024/03/18 05:46:55;;;;;;;1.80;1.33;;;9.80;98.40;;;;;;5035432;28;20229;-81
2024/03/18 05:49:23;;;;;;;2.92;1.30;;;9.80;98.60;;;;;;5032350;28;20213;-82
2024/03/18 05:51:52;;;;;;;1.20;1.10;;;9.70;98.70;;;;;;5033511;28;20209;-82
2024/03/18 05:54:18;;;;;;;1.50;1.20;;;9.70;99.10;;;;;;5030703;28;20205;-82
2024/03/18 05:56:46;;;;;;;3.45;1.40;;;9.70;99.10;;;;;;5034053;28;20203;-82
2024/03/18 05:59:13;;;;;;;1.55;1.30;;;9.80;99.50;;;;;;5029763;28;20195;-81
2024/03/18 06:01:40;;;;;;;3.63;1.40;;;9.80;99.00;;;;;;5032357;28;20194;-81
2024/03/18 06:04:09;;;;;;;3.38;1.30;;;9.80;98.90;;;;;;5032757;28;20856;-81
2024/03/18 06:06:38;;;;;;;2.60;1.30;;;9.90;98.90;;;;;;5034635;28;20218;-81
2024/03/18 06:09:05;;;;;;;2.50;1.40;;;9.90;99.00;;;;;;5033281;28;20222;-83
2024/03/18 06:11:33;;;;;;;2.55;1.25;;;9.90;98.90;;;;;;5027334;28;20199;-81
2024/03/18 06:14:00;;;;;;;3.15;1.45;;;9.90;99.10;;;;;;5033586;28;20226;-81
2024/03/18 06:16:27;;;;;;;3.08;1.40;;;9.90;99.10;;;;;;5034342;28;20206;-81
2024/03/18 06:18:54;;;;;;;1.65;1.23;;;10.00;98.30;;;;;;5032651;28;20199;-83
2024/03/18 06:21:27;;;;;;;3.30;1.60;;;10.20;98.20;;;;;;5039015;28;20189;-82
2024/03/18 06:23:59;;;;;;;4.32;1.70;;;10.40;97.20;;;;;;5032779;28;20191;-83
2024/03/18 06:26:24;;;;;;;4.45;1.50;;;10.50;97.20;;;;;;5033956;28;20296;-82
2024/03/18 06:28:52;;;;;;;2.67;1.50;;;10.60;97.00;;;;;;5028682;28;20285;-83
2024/03/18 06:31:19;;;;;;;5.68;1.40;;;10.70;96.70;;;;;;5036536;28;20293;-83
2024/03/18 06:33:48;;;;;;;3.25;1.30;;;10.70;96.00;;;;;;5038766;28;20251;-83
2024/03/18 06:36:14;;;;;;;2.30;1.70;;;10.80;95.90;;;;;;5035039;28;20674;-85
2024/03/18 06:38:42;;;;;;;4.35;1.83;;;10.90;95.90;;;;;;5033395;28;20573;-85
2024/03/18 06:41:11;;;;;;;4.00;1.77;;;10.90;96.00;;;;;;5032028;28;20210;-83
2024/03/18 06:43:38;;;;;;;2.55;1.60;;;10.80;95.90;;;;;;5040906;28;20241;-84
2024/03/18 06:46:09;;;;;;;2.55;1.50;;;10.80;95.90;;;;;;5039526;28;20223;-86
2024/03/18 06:48:36;;;;;;;2.33;1.75;;;10.70;95.90;;;;;;5030673;28;20201;-86
2024/03/18 06:51:02;;;;;;;5.00;1.80;;;10.80;95.40;;;;;;5033230;28;20206;-86
2024/03/18 06:53:29;;;;;;;3.67;1.60;;;10.80;95.90;;;;;;5034557;28;20206;-86
2024/03/18 06:55:56;;;;;;;2.92;2.00;;;10.80;95.90;;;;;;5032766;28;20201;-86
2024/03/18 06:58:26;;;;;;;4.40;2.15;;;10.90;95.80;;;;;;5034234;28;20276;-86
2024/03/18 07:00:55;;;;;;;3.58;2.00;;;10.90;95.40;;;;;;5034732;28;20195;-86
2024/03/18 07:03:22;;;;;;;4.10;2.83;;;11.00;95.10;;;;;;5031628;28;20207;-88
2024/03/18 07:05:49;;;;;;;5.72;2.40;;;11.10;94.80;;;;;;5032294;28;20195;-87
2024/03/18 07:08:16;;;;;;;2.75;2.50;;;11.10;94.30;;;;;;5032326;28;20198;-85
2024/03/18 07:10:43;;;;;;;3.33;2.30;;;11.10;94.40;;;;;;5034873;28;20655;-86
2024/03/18 07:13:09;;;;;;;6.30;2.10;;;11.00;94.80;;;;;;5032706;28;20198;-85
2024/03/18 07:15:38;;;;;;;5.07;2.17;;;11.10;94.70;;;;;;5037310;28;20199;-86
2024/03/18 07:18:05;;;;;;;2.85;1.95;;;11.00;94.80;;;;;;5036689;28;20198;-85
2024/03/18 07:20:32;;;;;;;5.70;1.70;;;11.10;95.00;;;;;;5028412;28;20194;-87
2024/03/18 07:22:59;;;;;;;5.53;1.83;;;11.10;94.70;;;;;;5033505;28;20841;-87
2024/03/18 07:25:26;;;;;;;2.72;1.73;;;11.10;95.40;;;;;;5030412;28;20568;-84
2024/03/18 07:27:53;;;;;;;5.40;1.92;;;11.10;95.30;;;;;;5032716;28;20244;-85
2024/03/18 07:30:20;;;;;;;5.10;1.90;;;11.20;94.70;;;;;;5029977;28;20253;-85
2024/03/18 07:32:49;;;;;;;3.15;1.60;;;11.40;93.70;;;;;;5042569;28;20204;-84
2024/03/18 07:35:15;;;;;;;4.25;1.65;;;11.30;93.90;;;;;;5032708;28;20206;-84
2024/03/18 07:37:43;;;;;;;3.92;1.60;;;11.30;93.90;;;;;;5035063;28;20298;-85
2024/03/18 07:40:11;;;;;;;2.65;1.63;;;11.40;93.70;;;;;;5030193;28;20207;-85
2024/03/18 07:42:39;;;;;;;4.57;1.63;;;11.50;94.10;;;;;;5026539;28;20234;-85
2024/03/18 07:45:07;;;;;;;4.50;2.10;;;11.50;93.30;;;;;;5030129;28;20202;-84
2024/03/18 07:47:35;;;;;;;4.38;1.90;;;11.60;93.40;;;;;;5030399;28;20223;-85
2024/03/18 07:50:04;;;;;;;4.00;1.75;;;11.70;93.20;;;;;;5026276;28;20217;-85
2024/03/18 07:52:31;;;;;;;5.45;2.00;;;11.70;93.10;;;;;;5030862;28;20208;-85
2024/03/18 07:55:00;;;;;;;7.18;2.55;;;11.80;92.50;;;;;;5032867;28;20202;-85
2024/03/18 07:57:27;;;;;;;4.85;2.33;;;11.90;92.20;;;;;;5025846;28;20206;-85
2024/03/18 07:59:54;;;;;;;4.85;2.03;;;12.20;92.20;;;;;;5039471;28;20198;-84
2024/03/18 08:02:22;;;;;;;2.28;1.63;;;12.50;90.90;;;;;;5034913;28;20198;-84
2024/03/18 08:04:50;;;;;;;2.00;1.50;;;12.60;88.20;;;;;;5023976;28;20203;-84
2024/03/18 08:07:19;;;;;;;1.67;1.40;;;12.50;86.80;;;;;;5028302;28;20921;-84
2024/03/18 08:09:46;;;;;;;4.00;1.60;;;12.70;86.70;;;;;;5033160;28;20209;-85
2024/03/18 08:12:13;;;;;;;4.38;1.52;;;12.80;85.10;;;;;;5027515;28;20706;-84
2024/03/18 08:14:42;;;;;;;1.65;1.38;;;12.80;84.00;;;;;;5033877;28;20198;-89
2024/03/18 08:17:09;;;;;;;2.42;1.55;;;12.90;83.00;;;;;;5033658;28;20210;-86
2024/03/18 08:19:36;;;;;;;2.55;1.40;;;12.90;83.50;;;;;;5025833;28;20201;-86
2024/03/18 08:22:04;;;;;;;2.63;1.33;;;13.10;85.10;;;;;;5027132;28;20233;-89
2024/03/18 08:24:33;;;;;;;2.80;1.30;;;13.10;82.20;;;;;;5034236;28;20197;-86
2024/03/18 08:26:59;;;;;;;4.57;1.50;;;13.30;80.60;;;;;;5026441;28;20226;-83
2024/03/18 08:29:30;;;;;;;2.10;1.60;;;13.20;76.80;;;;;;5028064;28;20206;-84
2024/03/18 08:31:56;;;;;;;2.55;1.42;;;13.30;76.10;;;;;;5028377;28;20209;-86
2024/03/18 08:34:23;;;;;;;2.97;1.25;;;13.40;76.20;;;;;;5030483;28;20210;-87
2024/03/18 08:36:50;;;;;;;2.75;1.30;;;13.20;76.00;;;;;;5036857;28;20199;-87
2024/03/18 08:39:18;;;;;;;1.90;1.30;;;13.20;76.00;;;;;;5028408;28;20206;-85
2024/03/18 08:41:47;;;;;;;5.38;1.40;;;13.10;75.90;;;;;;5013159;28;20282;-86
2024/03/18 08:44:14;;;;;;;2.65;1.15;;;13.10;77.40;;;;;;5033752;28;20250;-85
2024/03/18 08:46:42;;;;;;;6.90;1.27;;;13.10;77.30;;;;;;5035701;28;20305;-83
2024/03/18 08:49:13;;;;;;;2.75;1.38;;;13.20;76.00;;;;;;5031858;28;20260;-86
2024/03/18 08:51:40;;;;;;;2.42;1.60;;;13.30;76.10;;;;;;5037046;28;20197;-87
2024/03/18 08:54:07;;;;;;;3.67;1.52;;;13.20;76.00;;;;;;5028691;28;20607;-83
2024/03/18 08:56:34;;;;;;;1.77;1.48;;;13.10;75.90;;;;;;5026362;28;20202;-83
2024/03/18 08:59:02;;;;;;;2.78;1.55;;;13.20;76.00;;;;;;5031642;28;20214;-84
2024/03/18 09:01:29;;;;;;;2.42;1.40;;;13.00;75.90;;;;;;5026287;28;20676;-83
2024/03/18 09:03:56;;;;;;;4.50;1.30;;;12.90;75.80;;;;;;5026396;28;20202;-84
2024/03/18 09:06:23;;;;;;;1.35;1.15;;;13.00;75.90;;;;;;5029986;28;20198;-83
2024/03/18 09:08:50;;;;;;;2.97;1.33;;;12.90;75.80;;;;;;5031253;28;20201;-83
2024/03/18 09:11:17;;;;;;;4.07;1.30;;;12.90;75.80;;;;;;5035601;28;20202;-83
2024/03/18 09:13:44;;;;;;;2.55;1.40;;;12.90;75.80;;;;;;5039552;28;20949;-83
2024/03/18 09:16:12;;;;;;;1.30;1.20;;;13.10;76.80;;;;;;5035223;28;20200;-83
2024/03/18 09:18:39;;;;;;;3.20;1.27;;;13.30;76.10;;;;;;5025328;28;20205;-83
2024/03/18 09:21:06;;;;;;;1.55;1.20;;;13.30;73.80;;;;;;5031402;28;20210;-83
2024/03/18 09:23:33;;;;;;;2.13;1.27;;;13.20;76.00;;;;;;5028975;28;20209;-83
2024/03/18 09:26:00;;;;;;;2.05;1.35;;;13.00;75.90;;;;;;5030575;28;20205;-83
2024/03/18 09:28:27;;;;;;;2.40;1.10;;;13.10;76.20;;;;;;5029067;28;20215;-84
2024/03/18 09:31:00;;;;;;;1.63;1.27;;;13.20;72.20;;;;;;5035155;28;20198;-83
2024/03/18 09:33:29;;;;;;;1.35;1.20;;;13.30;71.30;;;;;;5037246;28;20248;-83
2024/03/18 09:35:56;;;;;;;5.05;1.45;;;13.20;70.50;;;;;;5035347;28;20221;-83
2024/03/18 09:38:23;;;;;;;4.60;1.10;;;13.10;71.80;;;;;;5030090;28;20214;-83
2024/03/18 09:40:51;;;;;;;3.35;1.40;;;13.00;75.90;;;;;;5035596;28;20301;-83
2024/03/18 09:43:18;;;;;;;3.58;1.60;;;13.10;73.60;;;;;;5034387;28;20226;-83
2024/03/18 09:45:45;;;;;;;3.70;1.30;;;13.20;73.80;;;;;;5033131;28;20562;-83
2024/03/18 09:48:15;;;;;;;3.78;1.30;;;13.30;73.00;;;;;;5035281;28;20207;-82
2024/03/18 09:50:44;;;;;;;2.08;1.10;;;13.30;68.60;;;;;;5034180;28;20195;-83
2024/03/18 09:53:12;;;;;;;7.50;1.48;;;13.30;69.80;;;;;;5027998;28;20205;-83
2024/03/18 09:55:40;;;;;;;1.77;1.30;;;13.30;70.60;;;;;;5032186;28;20572;-83
2024/03/18 09:58:14;;;;;;;5.25;1.50;;;13.20;70.40;;;;;;5039734;28;20209;-83
2024/03/18 10:00:41;;;;;;;3.08;1.48;;;13.20;71.20;;;;;;5036038;28;20194;-83
2024/03/18 10:03:15;;;;;;;1.83;1.30;;;13.00;72.30;;;;;;5035187;28;20214;-83
2024/03/18 10:05:44;;;;;;;4.68;1.60;;;12.90;74.30;;;;;;5032202;28;20199;-83
2024/03/18 10:08:14;;;;;;;3.80;1.52;;;13.00;74.00;;;;;;5031219;28;20237;-83
2024/03/18 10:10:41;;;;;;;3.15;1.40;;;12.80;75.70;;;;;;5033629;28;20206;-83
2024/03/18 10:13:09;;;;;;;2.78;1.48;;;12.70;75.60;;;;;;5031501;28;20195;-83
2024/03/18 10:15:39;;;;;;;1.58;1.38;;;12.70;75.60;;;;;;5035227;28;20194;-83
2024/03/18 10:18:09;;;;;;;3.80;1.23;;;12.70;75.60;;;;;;5035019;28;20237;-83
2024/03/18 10:20:37;;;;;;;3.50;1.38;;;12.80;75.70;;;;;;5028673;28;20564;-83
2024/03/18 10:23:09;;;;;;;3.13;1.83;;;13.10;71.40;;;;;;5030170;28;20202;-83
2024/03/18 10:25:39;;;;;;;3.03;1.60;;;13.40;69.60;;;;;;5030381;28;20304;-83
2024/03/18 10:28:06;;;;;;;5.70;1.60;;;13.60;66.20;;;;;;5038031;28;20276;-83
2024/03/18 10:30:34;;;;;;;2.92;1.70;;;13.60;66.00;;;;;;5033917;28;20205;-83
2024/03/18 10:33:04;;;;;;;1.65;1.33;;;13.70;64.90;;;;;;5035206;28;20223;-85
2024/03/18 10:35:34;;;;;;;2.15;1.55;;;13.70;62.50;;;;;;5032893;28;20570;-83
2024/03/18 10:38:02;;;;;;;3.22;1.50;;;13.70;62.40;;;;;;5035049;28;20983;-83
2024/03/18 10:40:36;;;;;;;2.67;1.40;;;13.60;64.80;;;;;;5038119;28;20199;-83
2024/03/18 10:43:05;;;;;;;4.88;1.40;;;13.50;66.30;;;;;;5034856;28;20221;-83
2024/03/18 10:45:32;;;;;;;4.85;1.40;;;13.30;69.40;;;;;;5033213;28;20194;-83
2024/03/18 10:48:03;;;;;;;7.45;1.88;;;13.30;67.40;;;;;;5035473;28;20217;-83
2024/03/18 10:50:31;;;;;;;8.00;1.98;;;13.40;67.80;;;;;;5034407;28;20203;-83
2024/03/18 10:52:59;;;;;;;4.85;1.65;;;13.40;68.30;;;;;;5032206;28;20217;-83
2024/03/18 10:55:29;;;;;;;9.05;1.60;;;13.40;67.10;;;;;;5031810;28;20281;-83
2024/03/18 10:57:59;;;;;;;3.45;1.67;;;13.30;67.00;;;;;;5039950;28;20541;-83
2024/03/18 11:00:27;;;;;;;5.10;1.92;;;13.10;66.60;;;;;;5033502;28;20678;-86
2024/03/18 11:02:56;;;;;;;3.60;1.60;;;13.30;66.90;;;;;;5035288;28;20218;-83
2024/03/18 11:05:24;;;;;;;3.78;1.70;;;13.20;65.20;;;;;;5025261;28;20207;-86
2024/03/18 11:07:58;;;;;;;4.40;1.60;;;13.20;66.30;;;;;;5027735;28;20272;-83
2024/03/18 11:10:28;;;;;;;4.93;1.60;;;13.20;64.60;;;;;;5032400;28;20214;-82
2024/03/18 11:13:06;;;;;;;4.53;1.52;;;13.30;63.20;;;;;;5040981;28;20202;-83
2024/03/18 11:15:33;;;;;;;7.65;1.58;;;13.20;63.80;;;;;;5032551;28;20197;-83
2024/03/18 11:18:05;;;;;;;5.07;1.58;;;13.20;64.90;;;;;;5034399;28;20207;-83
2024/03/18 11:20:45;;;;;;;3.17;1.60;;;13.20;64.50;;;;;;5029250;28;20199;-83
2024/03/18 11:23:15;;;;;;;3.90;1.70;;;13.60;63.60;;;;;;5027254;28;20199;-83
2024/03/18 11:25:42;;;;;;;5.45;1.45;;;13.70;60.20;;;;;;5027308;28;20191;-83
2024/03/18 11:28:11;;;;;;;5.40;1.60;;;13.70;59.30;;;;;;5030501;28;20268;-83
2024/03/18 11:30:40;;;;;;;3.55;1.73;;;13.80;59.90;;;;;;5035034;28;20205;-84
2024/03/18 11:33:11;;;;;;;3.78;1.42;;;13.70;62.50;;;;;;5034383;28;20201;-83
2024/03/18 11:35:39;;;;;;;6.40;1.60;;;13.70;64.60;;;;;;5023325;28;20203;-84
2024/03/18 11:38:07;;;;;;;4.22;1.65;;;13.60;63.40;;;;;;5027891;28;20198;-83
2024/03/18 11:40:38;;;;;;;4.97;1.60;;;13.60;61.30;;;;;;5033596;28;20199;-85
2024/03/18 11:43:05;;;;;;;6.93;1.60;;;13.50;62.60;;;;;;5033020;28;20293;-85
2024/03/18 11:45:34;;;;;;;2.63;1.50;;;13.40;63.50;;;;;;5027886;28;20194;-83
2024/03/18 11:48:04;;;;;;;5.80;1.70;;;13.50;64.30;;;;;;5030707;28;20207;-83
2024/03/18 11:50:32;;;;;;;5.45;1.98;;;13.40;65.50;;;;;;5032525;28;20210;-83
2024/03/18 11:53:01;;;;;;;2.83;2.08;;;13.40;68.50;;;;;;5042786;28;20225;-83
2024/03/18 11:55:28;;;;;;;5.43;2.08;;;13.30;70.70;;;;;;5033647;28;20245;-83
2024/03/18 11:57:56;;;;;;;5.45;1.60;;;13.20;70.90;;;;;;5033718;28;20650;-83
2024/03/18 12:00:23;;;;;;;4.68;1.85;;;13.00;70.60;;;;;;5028475;28;20225;-83
2024/03/18 12:02:51;;;;;;;5.80;1.70;;;13.00;75.90;;;;;;5031730;28;20199;-83
2024/03/18 12:05:18;;;;;;;2.38;1.98;;;12.80;75.70;;;;;;5030860;28;20202;-83
2024/03/18 12:07:45;;;;;;;3.45;1.80;;;12.70;75.70;;;;;;5027573;28;20227;-83
2024/03/18 12:10:17;;;;;;;5.53;2.22;;;12.70;79.70;;;;;;5038064;28;20209;-83
2024/03/18 12:12:44;;;;;;;6.63;1.90;;;12.80;80.20;;;;;;5026657;28;20186;-84
2024/03/18 12:15:11;;;;;;;3.60;2.13;;;12.90;76.50;;;;;;5033205;28;20229;-83
2024/03/18 12:17:38;;;;;;;4.78;2.10;;;12.80;78.70;;;;;;5027828;28;20194;-82
2024/03/18 12:20:22;;;;;;;6.68;2.50;;;12.90;78.70;;;;;;5027077;28;20206;-83
2024/03/18 12:22:57;;;;;;;3.70;2.05;;;12.80;79.30;;;;;;5033999;28;20203;-83
2024/03/18 12:30:56;;;;;;;4.55;2.40;;;12.70;81.80;;;;;;5027540;28;20201;-82
2024/03/18 12:33:23;;;;;;;6.13;2.40;;;12.70;80.00;;;;;;5030535;28;20195;-82
2024/03/18 12:35:52;;;;;;;4.25;2.40;;;12.60;80.20;;;;;;5038228;28;20217;-83
2024/03/18 12:38:19;;;;;;;4.35;2.53;;;12.60;80.30;;;;;;5031377;28;20207;-83
2024/03/18 12:40:46;;;;;;;3.92;2.42;;;12.50;80.20;;;;;;5033167;28;20664;-82
2024/03/18 12:43:13;;;;;;;7.25;2.50;;;12.40;81.00;;;;;;5032379;28;20226;-83
2024/03/18 12:45:40;;;;;;;4.03;2.75;;;12.50;83.10;;;;;;5027517;28;20207;-83
2024/03/18 12:48:10;;;;;;;4.72;2.90;;;12.50;84.20;;;;;;5028537;28;20233;-84
2024/03/18 12:50:37;;;;;;;4.82;2.70;;;12.30;84.10;;;;;;5029620;28;20208;-82
2024/03/18 12:53:09;;;;;;;4.55;2.72;;;12.30;85.40;;;;;;5023774;28;20195;-86
2024/03/18 12:55:36;;;;;;;6.45;2.97;;;12.40;86.90;;;;;;5030950;28;20198;-86
2024/03/18 12:58:05;;;;;;;5.22;2.85;;;12.30;84.20;;;;;;5032969;28;20273;-86